Time;durP1;ratioP1;P1;durP2;ratioP2;P2;SDS_P1;SDS_P2;PMS_P1;PMS_P2;Temp;Humidity;BMP_temperature;BMP_pressure;BME280_temperature;BME280_humidity;BME280_pressure;Samples;Min_cycle;Max_cycle;Signal;HPM_P1;HPM_P2
2021/07/12 00:01:45;;;;;;;7.53;3.22;;;16.30;29.50;;;;;;5104231;28;20056;-74
2021/07/12 00:04:34;;;;;;;5.00;3.10;;;16.40;28.50;;;;;;5100691;28;20158;-74
2021/07/12 00:07:23;;;;;;;5.45;3.47;;;16.50;26.60;;;;;;5070532;28;20429;-74
2021/07/12 00:10:14;;;;;;;5.05;3.17;;;16.60;26.50;;;;;;5093749;28;20073;-72
2021/07/12 00:13:03;;;;;;;4.22;3.65;;;16.50;26.50;;;;;;5101421;28;20052;-74
2021/07/12 00:15:52;;;;;;;5.15;3.15;;;16.50;26.50;;;;;;5101322;28;20062;-74
2021/07/12 00:18:42;;;;;;;4.35;3.40;;;16.50;26.50;;;;;;5105692;28;20055;-73
2021/07/12 00:21:30;;;;;;;4.60;2.90;;;16.40;27.10;;;;;;5099537;28;20570;-74
2021/07/12 00:24:20;;;;;;;4.00;3.08;;;16.30;28.40;;;;;;5104333;28;20051;-74
2021/07/12 00:27:08;;;;;;;3.28;2.90;;;16.30;27.90;;;;;;5082117;28;20047;-73
2021/07/12 00:29:57;;;;;;;4.82;3.40;;;16.10;30.00;;;;;;5108133;27;20506;-74
2021/07/12 00:32:43;;;;;;;5.03;3.30;;;16.10;30.60;;;;;;5160948;27;20126;-74
2021/07/12 00:35:32;;;;;;;5.00;3.30;;;15.90;32.60;;;;;;5143463;27;20256;-74
2021/07/12 00:38:20;;;;;;;3.85;3.10;;;16.10;31.90;;;;;;5134286;27;20043;-74
2021/07/12 00:41:11;;;;;;;3.22;2.90;;;16.10;31.50;;;;;;5134427;27;20054;-73
2021/07/12 00:43:59;;;;;;;3.55;3.00;;;16.10;31.00;;;;;;5137386;27;20513;-73
2021/07/12 00:46:48;;;;;;;4.70;3.03;;;16.10;31.00;;;;;;5134553;27;20047;-73
2021/07/12 00:49:38;;;;;;;4.05;3.08;;;16.10;31.40;;;;;;5123762;27;20395;-72
2021/07/12 00:52:27;;;;;;;4.30;2.88;;;16.30;28.10;;;;;;5118765;27;20061;-73
2021/07/12 00:55:19;;;;;;;3.70;3.10;;;16.20;28.20;;;;;;5141845;27;20042;-73
2021/07/12 00:58:11;;;;;;;3.17;2.88;;;16.20;28.00;;;;;;5127578;27;20035;-73
2021/07/12 01:01:02;;;;;;;4.40;3.58;;;16.30;28.30;;;;;;5127101;27;20035;-73
2021/07/12 01:03:51;;;;;;;3.35;3.05;;;16.30;28.10;;;;;;5128722;27;20526;-72
2021/07/12 01:06:43;;;;;;;3.30;2.72;;;16.30;29.40;;;;;;5122465;27;20038;-73
2021/07/12 01:09:32;;;;;;;4.00;3.05;;;16.00;31.50;;;;;;5130370;27;20138;-73
2021/07/12 01:12:29;;;;;;;4.10;3.20;;;15.90;33.80;;;;;;5135113;27;20168;-73
2021/07/12 01:15:20;;;;;;;4.65;3.53;;;15.70;35.20;;;;;;5134988;27;20117;-73
2021/07/12 01:18:23;;;;;;;3.47;2.92;;;15.80;34.50;;;;;;5125216;27;20066;-72
2021/07/12 01:21:54;;;;;;;6.35;3.15;;;15.70;36.10;;;;;;5127476;27;20141;-73
2021/07/12 01:25:20;;;;;;;4.43;3.30;;;15.70;35.50;;;;;;5136172;27;20061;-73
2021/07/12 01:28:53;;;;;;;4.53;3.40;;;15.50;36.80;;;;;;5100051;27;20551;-73
2021/07/12 01:32:29;;;;;;;9.90;3.17;;;15.70;37.00;;;;;;5110247;27;20043;-72
2021/07/12 01:35:38;;;;;;;4.53;2.95;;;15.60;37.00;;;;;;5131205;27;20039;-73
2021/07/12 01:38:39;;;;;;;4.03;2.92;;;15.50;39.80;;;;;;5132028;27;20071;-73
2021/07/12 01:41:35;;;;;;;4.55;3.20;;;15.70;36.90;;;;;;5132490;27;20043;-74
2021/07/12 01:44:33;;;;;;;5.13;3.00;;;15.70;35.90;;;;;;5112910;27;20043;-73
2021/07/12 01:47:34;;;;;;;5.53;3.67;;;15.60;36.10;;;;;;5111079;27;20043;-72
2021/07/12 01:50:36;;;;;;;3.85;3.22;;;15.60;36.20;;;;;;5094216;28;20190;-72
2021/07/12 01:56:51;;;;;;;3.97;2.60;;;15.70;34.80;;;;;;5118985;27;20501;-72
2021/07/12 01:59:47;;;;;;;3.75;3.00;;;15.60;35.10;;;;;;5110808;27;20043;-73
2021/07/12 02:02:40;;;;;;;4.93;3.08;;;15.50;36.40;;;;;;5123803;27;20131;-72
2021/07/12 02:05:35;;;;;;;7.35;3.60;;;15.30;38.20;;;;;;5119378;27;20119;-73
2021/07/12 02:08:26;;;;;;;5.32;3.03;;;15.30;40.20;;;;;;5115748;27;20047;-72
2021/07/12 02:11:18;;;;;;;3.50;2.95;;;15.60;37.20;;;;;;5109598;27;20051;-73
2021/07/12 02:14:08;;;;;;;5.53;2.90;;;15.50;37.50;;;;;;5114413;27;20134;-73
2021/07/12 02:17:01;;;;;;;5.75;2.95;;;15.60;35.50;;;;;;5116883;27;20754;-73
2021/07/12 02:19:53;;;;;;;4.55;2.92;;;15.60;36.60;;;;;;5119064;27;20043;-73
2021/07/12 02:22:45;;;;;;;4.60;2.90;;;15.40;37.40;;;;;;5119891;27;20044;-72
2021/07/12 02:25:41;;;;;;;4.75;3.17;;;15.50;37.60;;;;;;5131348;27;20561;-73
2021/07/12 02:28:31;;;;;;;5.80;3.40;;;15.40;38.20;;;;;;5118025;27;20508;-73
2021/07/12 02:31:20;;;;;;;6.25;3.58;;;15.40;39.00;;;;;;5113412;27;20507;-72
2021/07/12 02:34:13;;;;;;;4.57;3.30;;;15.40;39.30;;;;;;5112630;27;20043;-72
2021/07/12 02:37:06;;;;;;;5.93;3.30;;;15.40;38.60;;;;;;5109912;27;20506;-73
2021/07/12 02:39:57;;;;;;;4.07;3.67;;;15.30;38.70;;;;;;5110541;27;20182;-73
2021/07/12 02:42:49;;;;;;;4.95;3.95;;;15.30;40.30;;;;;;5115366;27;20058;-72
2021/07/12 02:45:39;;;;;;;5.20;4.15;;;15.30;38.60;;;;;;5109652;27;21291;-71
2021/07/12 02:48:28;;;;;;;5.07;4.28;;;15.30;39.00;;;;;;5111184;27;20418;-73
2021/07/12 02:51:21;;;;;;;5.63;4.05;;;15.10;39.70;;;;;;5108956;27;20047;-73
2021/07/12 02:54:18;;;;;;;5.00;4.15;;;15.10;41.60;;;;;;5111045;27;20514;-73
2021/07/12 02:57:06;;;;;;;5.45;4.43;;;14.90;42.00;;;;;;5111209;27;20035;-72
2021/07/12 02:59:55;;;;;;;5.45;4.15;;;15.00;42.40;;;;;;5106825;27;20039;-72
2021/07/12 03:02:44;;;;;;;4.10;3.45;;;14.90;43.00;;;;;;5112266;27;20094;-71
2021/07/12 03:05:34;;;;;;;5.57;3.28;;;14.80;43.80;;;;;;5117162;27;20047;-72
2021/07/12 03:08:29;;;;;;;3.92;3.53;;;14.80;45.20;;;;;;5100099;27;20177;-73
2021/07/12 03:11:19;;;;;;;;;;;14.80;45.40;;;;;;5122605;27;20047;-71
2021/07/12 03:14:13;;;;;;;10.77;5.03;;;14.90;44.90;;;;;;5111971;27;19923;-71
2021/07/12 03:17:03;;;;;;;7.28;4.70;;;14.90;44.20;;;;;;5109916;27;20077;-72
2021/07/12 03:19:54;;;;;;;5.90;4.68;;;14.90;44.70;;;;;;5104591;27;20824;-72
2021/07/12 03:22:47;;;;;;;6.10;4.38;;;15.00;44.70;;;;;;5116503;27;20036;-72
2021/07/12 03:25:37;;;;;;;4.45;3.55;;;14.80;45.20;;;;;;5107880;27;20233;-73
2021/07/12 03:28:29;;;;;;;5.00;3.85;;;14.70;45.60;;;;;;5115940;27;20106;-72
2021/07/12 03:31:22;;;;;;;4.72;3.67;;;14.70;45.50;;;;;;5111033;27;20043;-73
2021/07/12 03:34:16;;;;;;;5.68;4.32;;;14.70;45.00;;;;;;5109799;27;20043;-72
2021/07/12 03:37:05;;;;;;;6.85;4.70;;;14.80;45.50;;;;;;5093944;28;20043;-72
2021/07/12 03:39:57;;;;;;;6.55;4.68;;;14.80;45.50;;;;;;5096801;27;20063;-72
2021/07/12 03:42:46;;;;;;;6.20;5.45;;;14.90;45.20;;;;;;5110206;27;20043;-71
2021/07/12 03:45:36;;;;;;;6.22;4.28;;;14.90;43.90;;;;;;5112153;27;20431;-71
2021/07/12 03:48:36;;;;;;;5.88;3.90;;;14.70;43.20;;;;;;5107217;27;20518;-72
2021/07/12 03:51:27;;;;;;;7.03;3.60;;;15.00;41.50;;;;;;5107188;27;21640;-73
2021/07/12 03:54:24;;;;;;;5.43;3.88;;;15.20;37.00;;;;;;5116356;27;20434;-72
2021/07/12 03:57:12;;;;;;;5.20;3.97;;;15.00;38.10;;;;;;5108626;27;20110;-72
2021/07/12 04:00:02;;;;;;;7.97;3.50;;;16.00;26.30;;;;;;5106899;27;20051;-73
2021/07/12 04:03:01;;;;;;;5.68;3.75;;;16.50;19.60;;;;;;5111205;27;20043;-72
2021/07/12 04:05:49;;;;;;;5.43;3.50;;;17.10;17.10;;;;;;5108798;27;20055;-72
2021/07/12 04:08:37;;;;;;;7.53;4.57;;;17.30;13.30;;;;;;5112708;27;20055;-72
2021/07/12 04:11:31;;;;;;;6.95;5.95;;;18.00;11.90;;;;;;5110537;27;20380;-72
2021/07/12 04:14:20;;;;;;;9.13;5.63;;;17.50;12.30;;;;;;5111263;27;20046;-72
2021/07/12 04:17:08;;;;;;;5.90;4.65;;;17.90;9.50;;;;;;5109998;27;20051;-72
2021/07/12 04:19:58;;;;;;;6.88;4.15;;;18.20;6.20;;;;;;5107404;27;20051;-71
2021/07/12 04:22:46;;;;;;;4.50;3.65;;;18.60;6.30;;;;;;5114623;27;20083;-72
2021/07/12 04:25:34;;;;;;;4.55;3.55;;;19.30;1.80;;;;;;5107280;27;20053;-71
2021/07/12 04:28:23;;;;;;;7.18;3.47;;;19.80;1.00;;;;;;5109999;27;20046;-72
2021/07/12 04:31:13;;;;;;;7.60;3.60;;;19.70;1.00;;;;;;5108981;28;20063;-72
2021/07/12 04:34:02;;;;;;;3.15;2.85;;;20.30;1.00;;;;;;5105767;28;20446;-73
2021/07/12 04:36:52;;;;;;;5.30;3.50;;;20.80;1.00;;;;;;5110334;28;20502;-73
2021/07/12 04:39:40;;;;;;;3.28;2.92;;;20.90;1.00;;;;;;5105619;28;20062;-73
2021/07/12 04:42:29;;;;;;;4.68;3.00;;;20.60;1.00;;;;;;5108912;28;20048;-72
2021/07/12 04:45:18;;;;;;;3.75;3.35;;;20.50;1.00;;;;;;5108561;28;20092;-73
2021/07/12 04:48:11;;;;;;;4.95;3.03;;;20.40;1.00;;;;;;5093994;28;21422;-73
2021/07/12 04:51:00;;;;;;;8.00;3.67;;;20.60;1.00;;;;;;5110744;28;20049;-73
2021/07/12 04:53:52;;;;;;;3.20;2.20;;;20.70;1.00;;;;;;5108958;28;20486;-73
2021/07/12 04:56:41;;;;;;;3.78;2.63;;;21.20;1.00;;;;;;5108317;28;20050;-73
2021/07/12 04:59:31;;;;;;;2.65;2.33;;;22.30;1.00;;;;;;5113722;27;20054;-76
2021/07/12 05:02:19;;;;;;;2.92;2.47;;;22.20;1.00;;;;;;5117783;27;20443;-73
2021/07/12 05:05:09;;;;;;;4.30;2.42;;;22.40;1.00;;;;;;5110363;27;20058;-74
2021/07/12 05:07:57;;;;;;;3.70;2.33;;;22.30;1.00;;;;;;5092826;28;20051;-73
2021/07/12 05:10:47;;;;;;;2.85;2.35;;;21.80;1.00;;;;;;5106639;27;20490;-73
2021/07/12 05:13:37;;;;;;;5.97;2.30;;;21.90;1.00;;;;;;5114145;27;20073;-74
2021/07/12 05:16:28;;;;;;;3.53;2.38;;;22.40;1.00;;;;;;5115163;27;20051;-73
2021/07/12 05:19:16;;;;;;;5.20;2.42;;;21.70;1.00;;;;;;5110048;27;20039;-74
2021/07/12 05:22:07;;;;;;;3.42;2.50;;;22.30;1.00;;;;;;5117917;27;20066;-73
2021/07/12 05:24:55;;;;;;;3.38;2.60;;;21.80;1.00;;;;;;5114265;27;20058;-73
2021/07/12 05:27:45;;;;;;;2.65;2.17;;;21.70;1.00;;;;;;5116631;27;20131;-74
2021/07/12 05:30:33;;;;;;;4.55;2.70;;;21.80;1.00;;;;;;5115375;27;20523;-74
2021/07/12 05:33:22;;;;;;;6.22;2.85;;;20.60;1.00;;;;;;5111708;27;20044;-73
2021/07/12 05:36:10;;;;;;;5.25;2.53;;;19.90;1.00;;;;;;5120854;27;20153;-73
2021/07/12 05:38:58;;;;;;;4.88;2.45;;;19.90;1.00;;;;;;5117201;27;20051;-73
2021/07/12 05:41:47;;;;;;;3.97;2.22;;;20.10;1.00;;;;;;5118374;27;20038;-73
2021/07/12 05:44:37;;;;;;;4.88;2.60;;;19.60;1.00;;;;;;5112557;27;20073;-72
2021/07/12 05:47:26;;;;;;;3.33;2.70;;;20.60;1.00;;;;;;5115093;27;20087;-73
2021/07/12 05:50:15;;;;;;;3.55;2.63;;;21.70;1.00;;;;;;5114678;27;20434;-73
2021/07/12 05:53:04;;;;;;;3.47;2.40;;;22.10;1.00;;;;;;5116589;27;20043;-73
2021/07/12 05:55:55;;;;;;;7.50;2.50;;;21.80;1.00;;;;;;5114719;27;20490;-73
2021/07/12 05:58:44;;;;;;;3.50;2.28;;;21.70;1.00;;;;;;5111242;27;20043;-73
2021/07/12 06:01:33;;;;;;;4.50;2.40;;;22.20;1.00;;;;;;5113807;27;20459;-73
2021/07/12 06:04:26;;;;;;;5.53;2.03;;;22.90;1.00;;;;;;5124444;27;20086;-74
2021/07/12 06:07:14;;;;;;;5.38;2.70;;;23.00;1.00;;;;;;5121063;27;20052;-73
2021/07/12 06:10:03;;;;;;;7.28;2.40;;;22.00;1.00;;;;;;5111295;27;20044;-73
2021/07/12 06:12:52;;;;;;;3.60;2.10;;;22.50;1.00;;;;;;5122018;27;20054;-73
2021/07/12 06:15:40;;;;;;;5.50;2.58;;;22.90;1.00;;;;;;5114599;27;20057;-73
2021/07/12 06:18:30;;;;;;;7.13;2.55;;;22.50;1.00;;;;;;5122249;27;20417;-73
2021/07/12 06:21:21;;;;;;;3.95;1.98;;;20.90;1.00;;;;;;5109417;27;20043;-73
2021/07/12 06:24:11;;;;;;;4.50;2.38;;;20.90;1.00;;;;;;5114866;27;20063;-73
2021/07/12 06:26:59;;;;;;;3.80;2.40;;;20.40;1.00;;;;;;5115896;27;20195;-72
2021/07/12 06:29:48;;;;;;;3.72;2.03;;;20.30;1.00;;;;;;5115538;27;20043;-74
2021/07/12 06:32:40;;;;;;;4.80;2.05;;;20.40;1.00;;;;;;5117683;27;20191;-72
2021/07/12 06:35:30;;;;;;;2.97;1.88;;;20.70;1.00;;;;;;5111604;27;20040;-73
2021/07/12 06:38:19;;;;;;;4.35;2.03;;;20.90;1.00;;;;;;5118343;27;20056;-73
2021/07/12 06:41:07;;;;;;;2.13;1.92;;;21.00;1.00;;;;;;5112968;27;20051;-72
2021/07/12 06:43:56;;;;;;;4.78;2.45;;;21.00;1.00;;;;;;5124897;27;20046;-72
2021/07/12 06:46:51;;;;;;;3.00;2.10;;;21.00;1.00;;;;;;5120221;27;20137;-73
2021/07/12 06:49:42;;;;;;;2.58;1.80;;;20.50;1.00;;;;;;5107187;27;20055;-72
2021/07/12 06:52:31;;;;;;;3.50;2.10;;;21.00;1.00;;;;;;5118787;27;20066;-73
2021/07/12 06:55:23;;;;;;;1.98;1.65;;;21.10;1.00;;;;;;5119452;27;20127;-73
2021/07/12 06:58:12;;;;;;;3.00;2.00;;;20.70;1.00;;;;;;5109340;27;20141;-73
2021/07/12 07:01:01;;;;;;;4.28;2.15;;;21.40;1.00;;;;;;5109892;27;20130;-74
2021/07/12 07:03:54;;;;;;;3.10;2.15;;;20.90;1.00;;;;;;5104477;27;20047;-73
2021/07/12 07:06:42;;;;;;;3.72;2.20;;;21.70;1.00;;;;;;5114833;27;20043;-73
2021/07/12 07:09:32;;;;;;;2.72;1.73;;;21.80;1.00;;;;;;5107222;27;20062;-73
2021/07/12 07:12:20;;;;;;;5.50;2.30;;;21.60;1.00;;;;;;5113651;27;20410;-73
2021/07/12 07:15:13;;;;;;;2.30;1.77;;;21.90;1.00;;;;;;5103505;27;20452;-73
2021/07/12 07:18:01;;;;;;;2.72;1.70;;;21.60;1.00;;;;;;5106283;27;20517;-72
2021/07/12 07:20:49;;;;;;;2.03;1.83;;;21.60;1.00;;;;;;5105709;27;20042;-73
2021/07/12 07:23:38;;;;;;;3.05;2.15;;;20.80;1.00;;;;;;5114707;27;20145;-72
2021/07/12 07:26:28;;;;;;;4.85;1.90;;;20.70;1.00;;;;;;5107962;27;20494;-73
2021/07/12 07:29:20;;;;;;;2.53;2.03;;;21.20;1.00;;;;;;5105465;27;20161;-73
2021/07/12 07:32:09;;;;;;;2.33;1.90;;;21.40;1.00;;;;;;5108673;27;20154;-72
2021/07/12 07:35:05;;;;;;;3.17;1.45;;;21.40;1.00;;;;;;5108548;27;20509;-73
2021/07/12 07:37:54;;;;;;;2.22;1.65;;;21.20;1.00;;;;;;5112901;27;20052;-73
2021/07/12 07:40:42;;;;;;;3.15;1.75;;;21.60;1.00;;;;;;5109030;27;20051;-73
2021/07/12 07:43:32;;;;;;;3.25;1.35;;;21.90;1.00;;;;;;5112104;27;20050;-75
2021/07/12 07:46:20;;;;;;;3.45;1.70;;;22.40;1.00;;;;;;5118865;27;20032;-74
2021/07/12 07:49:09;;;;;;;1.70;1.52;;;22.40;1.00;;;;;;5111839;27;20049;-75
2021/07/12 07:51:57;;;;;;;2.10;1.90;;;22.40;1.00;;;;;;5114851;27;20049;-74
2021/07/12 07:54:46;;;;;;;3.83;1.83;;;22.20;1.00;;;;;;5115607;27;20049;-75
2021/07/12 07:57:34;;;;;;;1.95;1.55;;;22.90;1.00;;;;;;5113499;27;20055;-74
2021/07/12 08:00:27;;;;;;;2.10;1.63;;;23.10;1.00;;;;;;5111636;27;20051;-75
2021/07/12 08:03:18;;;;;;;1.60;1.27;;;23.30;1.00;;;;;;5118911;27;20043;-75
2021/07/12 08:06:06;;;;;;;2.22;1.60;;;23.00;1.00;;;;;;5115866;27;20622;-75
2021/07/12 08:08:55;;;;;;;2.28;1.75;;;23.00;1.00;;;;;;5110226;27;20046;-74
2021/07/12 08:11:46;;;;;;;1.48;1.23;;;23.40;1.00;;;;;;5109423;27;20063;-74
2021/07/12 08:14:34;;;;;;;1.40;1.30;;;23.10;1.00;;;;;;5110766;27;20048;-75
2021/07/12 08:17:24;;;;;;;4.15;1.48;;;22.70;1.00;;;;;;5118761;27;20452;-75
2021/07/12 08:20:14;;;;;;;1.80;1.60;;;22.90;1.00;;;;;;5109885;27;20044;-73
2021/07/12 08:23:08;;;;;;;3.25;1.25;;;23.50;1.00;;;;;;5114056;27;20574;-73
2021/07/12 08:25:57;;;;;;;1.70;1.35;;;23.50;1.00;;;;;;5105053;28;20475;-74
2021/07/12 08:28:45;;;;;;;2.17;1.42;;;22.90;1.00;;;;;;5119354;27;20054;-73
2021/07/12 08:31:34;;;;;;;1.65;1.20;;;23.10;1.00;;;;;;5112975;27;20043;-73
2021/07/12 08:34:25;;;;;;;3.28;1.45;;;22.90;1.00;;;;;;5113177;27;20051;-74
2021/07/12 08:37:14;;;;;;;2.22;1.42;;;23.10;1.00;;;;;;5122187;27;20074;-73
2021/07/12 08:40:04;;;;;;;6.97;1.65;;;23.20;1.00;;;;;;5107728;28;20135;-74
2021/07/12 08:42:55;;;;;;;1.77;1.48;;;23.20;1.00;;;;;;5109417;28;20050;-76
2021/07/12 08:45:43;;;;;;;3.35;1.27;;;23.60;1.00;;;;;;5108672;28;20035;-75
2021/07/12 08:48:32;;;;;;;2.15;1.38;;;23.70;1.00;;;;;;5111768;28;20051;-74
2021/07/12 08:51:21;;;;;;;2.10;1.40;;;23.20;1.00;;;;;;5107366;28;20498;-75
2021/07/12 08:54:10;;;;;;;2.83;1.45;;;23.80;1.00;;;;;;5114084;27;20536;-75
2021/07/12 08:56:58;;;;;;;2.08;1.42;;;24.20;1.00;;;;;;5112025;27;20448;-75
2021/07/12 08:59:47;;;;;;;2.05;1.15;;;24.10;1.00;;;;;;5111436;27;20060;-73
2021/07/12 09:02:37;;;;;;;2.38;1.42;;;24.10;1.00;;;;;;5119798;27;20047;-74
2021/07/12 09:05:26;;;;;;;1.67;1.17;;;23.80;1.00;;;;;;5111160;27;20038;-70
2021/07/12 09:08:34;;;;;;;6.72;1.70;;;23.40;1.00;;;;;;5113129;27;20056;-70
2021/07/12 09:11:28;;;;;;;3.40;1.63;;;23.60;1.00;;;;;;5110119;27;20050;-71
2021/07/12 09:14:17;;;;;;;1.85;1.25;;;24.20;1.00;;;;;;5112247;27;20047;-71
2021/07/12 09:17:07;;;;;;;2.17;1.60;;;24.90;1.00;;;;;;5114937;27;20032;-70
2021/07/12 09:19:56;;;;;;;2.67;1.30;;;24.50;1.00;;;;;;5119099;27;20067;-71
2021/07/12 09:22:44;;;;;;;3.72;1.50;;;24.10;1.00;;;;;;5125102;27;20997;-72
2021/07/12 09:25:34;;;;;;;1.98;1.40;;;24.10;1.00;;;;;;5116418;27;20058;-70
2021/07/12 09:28:22;;;;;;;2.33;1.40;;;24.20;1.00;;;;;;5116870;27;20416;-73
2021/07/12 09:31:26;;;;;;;1.75;1.30;;;24.50;1.00;;;;;;5113619;27;20044;-70
2021/07/12 09:34:15;;;;;;;3.08;1.48;;;24.40;1.00;;;;;;5108749;27;20416;-71
2021/07/12 09:37:05;;;;;;;2.95;1.92;;;24.50;1.00;;;;;;5111477;27;20088;-70
2021/07/12 09:39:55;;;;;;;4.22;1.33;;;24.60;1.00;;;;;;5110797;27;20166;-71
2021/07/12 09:42:46;;;;;;;1.70;1.23;;;25.30;1.00;;;;;;5116908;27;20074;-71
2021/07/12 09:45:38;;;;;;;3.13;1.30;;;25.40;1.00;;;;;;5112021;27;20036;-71
2021/07/12 09:48:27;;;;;;;3.63;1.15;;;25.30;1.00;;;;;;5113521;27;20075;-70
2021/07/12 09:51:31;;;;;;;3.45;1.20;;;24.90;1.00;;;;;;5110820;27;20066;-71
2021/07/12 09:54:21;;;;;;;3.10;1.00;;;25.70;1.00;;;;;;5113603;27;20044;-71
2021/07/12 09:57:12;;;;;;;1.92;0.95;;;25.90;1.00;;;;;;5110597;27;20108;-71
2021/07/12 10:00:05;;;;;;;2.85;1.27;;;26.10;1.00;;;;;;5107851;27;20634;-72
2021/07/12 10:03:01;;;;;;;2.65;1.30;;;25.80;1.00;;;;;;5112063;27;20048;-72
2021/07/12 10:05:52;;;;;;;1.52;1.30;;;25.40;1.00;;;;;;5109712;27;20039;-70
2021/07/12 10:08:40;;;;;;;3.22;1.40;;;25.20;1.00;;;;;;5108122;27;20060;-72
2021/07/12 10:11:29;;;;;;;1.17;1.05;;;25.60;1.00;;;;;;5111623;27;20044;-71
2021/07/12 10:14:18;;;;;;;2.33;1.35;;;25.70;1.00;;;;;;5110408;27;20097;-71
2021/07/12 10:17:09;;;;;;;1.88;1.08;;;25.70;1.00;;;;;;5110553;27;20092;-71
2021/07/12 10:19:58;;;;;;;1.50;1.10;;;26.00;1.00;;;;;;5107183;27;20055;-72
2021/07/12 10:22:46;;;;;;;1.63;1.20;;;26.30;1.00;;;;;;5115188;27;20495;-70
2021/07/12 10:25:38;;;;;;;5.65;1.00;;;26.60;1.00;;;;;;5110270;27;20054;-70
2021/07/12 10:28:38;;;;;;;4.57;1.25;;;26.70;1.00;;;;;;5112567;27;20123;-72
2021/07/12 10:31:27;;;;;;;1.60;1.17;;;26.40;1.00;;;;;;5113232;27;20039;-70
2021/07/12 10:34:26;;;;;;;3.47;1.33;;;26.00;1.00;;;;;;5117837;27;20128;-71
2021/07/12 10:37:30;;;;;;;1.20;1.10;;;26.00;1.00;;;;;;5113139;27;20130;-71
2021/07/12 10:40:19;;;;;;;3.22;1.35;;;26.10;1.00;;;;;;5113950;27;20053;-72
2021/07/12 10:43:07;;;;;;;3.58;2.20;;;26.00;1.00;;;;;;5116803;27;20051;-71
2021/07/12 10:45:56;;;;;;;2.70;1.20;;;25.50;1.00;;;;;;5111686;27;20035;-72
2021/07/12 10:48:44;;;;;;;1.95;1.30;;;25.70;1.00;;;;;;5116517;27;20077;-71
2021/07/12 10:51:38;;;;;;;2.22;1.30;;;25.60;1.00;;;;;;5109466;27;20134;-71
2021/07/12 10:54:27;;;;;;;2.40;1.10;;;25.60;1.00;;;;;;5115736;27;20062;-71
2021/07/12 10:57:17;;;;;;;1.50;1.23;;;25.50;1.00;;;;;;5114102;27;20050;-71
2021/07/12 11:00:12;;;;;;;1.77;1.10;;;25.80;1.00;;;;;;5111486;27;20130;-71
2021/07/12 11:03:03;;;;;;;1.67;1.45;;;26.10;1.00;;;;;;5109493;27;20043;-71
2021/07/12 11:05:52;;;;;;;2.00;1.48;;;26.20;1.00;;;;;;5111376;27;20035;-72
2021/07/12 11:08:45;;;;;;;1.50;1.23;;;26.60;1.00;;;;;;5108932;27;20061;-70
2021/07/12 11:11:39;;;;;;;1.58;1.20;;;26.50;1.00;;;;;;5109246;27;20052;-71
2021/07/12 11:14:28;;;;;;;1.65;1.27;;;26.00;1.00;;;;;;5111597;27;20055;-71
2021/07/12 11:17:54;;;;;;;3.20;1.30;;;26.30;1.00;;;;;;5108556;27;20373;-71
2021/07/12 11:20:43;;;;;;;;;;;26.00;1.00;;;;;;5116147;27;20059;-71
2021/07/12 11:24:17;;;;;;;3.42;1.10;;;26.00;1.00;;;;;;5116792;27;19927;-72
2021/07/12 11:27:06;;;;;;;2.67;1.45;;;26.00;1.00;;;;;;5109604;27;20038;-71
2021/07/12 11:30:26;;;;;;;4.43;1.52;;;26.50;1.00;;;;;;5110236;27;20097;-71
2021/07/12 11:33:29;;;;;;;1.90;1.70;;;26.30;1.00;;;;;;5112752;27;20044;-71
2021/07/12 11:36:19;;;;;;;5.28;1.50;;;26.30;1.00;;;;;;5112687;27;20049;-72
2021/07/12 11:39:08;;;;;;;1.58;1.20;;;26.50;1.00;;;;;;5115096;27;20038;-71
2021/07/12 11:41:56;;;;;;;2.97;1.42;;;26.50;1.00;;;;;;5113049;27;20055;-71
2021/07/12 11:44:50;;;;;;;2.83;1.50;;;26.80;1.00;;;;;;5109882;27;20051;-71
2021/07/12 11:47:42;;;;;;;4.10;1.52;;;26.90;1.00;;;;;;5115217;27;20050;-71
2021/07/12 11:50:33;;;;;;;1.75;1.38;;;27.20;1.00;;;;;;5110197;27;20035;-72
2021/07/12 11:53:21;;;;;;;2.80;1.73;;;27.50;1.00;;;;;;5113352;27;20077;-71
2021/07/12 11:56:18;;;;;;;2.15;1.50;;;26.80;1.00;;;;;;5112171;27;20074;-74
2021/07/12 11:59:06;;;;;;;1.50;1.40;;;26.50;1.00;;;;;;5115464;27;20051;-73
2021/07/12 12:02:00;;;;;;;1.52;1.40;;;26.80;1.00;;;;;;5115805;27;20114;-72
2021/07/12 12:04:57;;;;;;;2.38;1.65;;;27.10;1.00;;;;;;5119114;27;20329;-72
2021/07/12 12:07:48;;;;;;;3.88;1.83;;;26.50;1.00;;;;;;5114945;27;20400;-73
2021/07/12 12:10:38;;;;;;;1.70;1.35;;;26.20;1.00;;;;;;5108085;27;20051;-73
2021/07/12 12:13:29;;;;;;;2.83;1.50;;;26.50;1.00;;;;;;5110512;27;20051;-72
2021/07/12 12:16:25;;;;;;;1.45;1.30;;;26.40;1.00;;;;;;5104568;27;20051;-71
2021/07/12 12:19:14;;;;;;;1.83;1.55;;;26.00;1.00;;;;;;5111492;27;20170;-71
2021/07/12 12:22:06;;;;;;;1.88;1.33;;;26.10;1.00;;;;;;5108797;27;20047;-70
2021/07/12 12:24:55;;;;;;;1.65;1.38;;;26.00;1.00;;;;;;5103327;28;20066;-71
2021/07/12 12:27:43;;;;;;;2.22;1.60;;;26.70;1.00;;;;;;5108082;27;20056;-71
2021/07/12 12:30:32;;;;;;;1.25;1.15;;;27.10;1.00;;;;;;5105540;28;20079;-71
2021/07/12 12:33:28;;;;;;;2.25;1.30;;;27.30;1.00;;;;;;5111239;28;20514;-71
2021/07/12 12:36:20;;;;;;;2.90;1.65;;;26.80;1.00;;;;;;5110172;28;20121;-70
2021/07/12 12:39:12;;;;;;;2.35;1.30;;;26.60;1.00;;;;;;5105765;28;20570;-71
2021/07/12 12:42:02;;;;;;;1.50;1.30;;;26.80;1.00;;;;;;5109062;28;20406;-72
2021/07/12 12:44:50;;;;;;;2.95;1.50;;;27.50;1.00;;;;;;5108520;28;20047;-72
2021/07/12 12:47:45;;;;;;;1.40;1.05;;;27.90;1.00;;;;;;5105968;28;20043;-72
2021/07/12 12:50:33;;;;;;;2.17;1.40;;;28.10;1.00;;;;;;5105933;28;20080;-72
2021/07/12 12:53:31;;;;;;;1.40;1.30;;;28.20;1.00;;;;;;5111535;28;20048;-71
2021/07/12 12:56:20;;;;;;;2.38;1.45;;;28.00;1.00;;;;;;5108288;28;20559;-71
2021/07/12 12:59:12;;;;;;;1.60;1.25;;;28.00;1.00;;;;;;5107689;28;20165;-72
2021/07/12 13:02:03;;;;;;;1.33;1.15;;;27.50;1.00;;;;;;5111614;28;20042;-72
2021/07/12 13:04:54;;;;;;;4.35;1.15;;;27.00;1.00;;;;;;5110196;28;20059;-72
2021/07/12 13:07:54;;;;;;;1.88;1.38;;;27.50;1.00;;;;;;5105898;28;20051;-72
2021/07/12 13:10:42;;;;;;;1.73;1.48;;;27.30;1.00;;;;;;5103748;28;20220;-70
2021/07/12 13:13:32;;;;;;;1.80;1.23;;;27.30;1.00;;;;;;5109529;28;20036;-71
2021/07/12 13:16:21;;;;;;;1.48;1.30;;;27.70;1.00;;;;;;5098490;28;20062;-71
2021/07/12 13:19:09;;;;;;;2.78;1.30;;;27.10;1.00;;;;;;5110325;28;20160;-71
2021/07/12 13:21:58;;;;;;;1.92;1.50;;;27.00;1.00;;;;;;5109194;28;20200;-71
2021/07/12 13:24:50;;;;;;;1.23;1.08;;;26.90;1.00;;;;;;5109423;28;20051;-72
2021/07/12 13:27:41;;;;;;;2.88;1.40;;;27.20;1.00;;;;;;5112058;28;20035;-71
2021/07/12 13:30:33;;;;;;;2.75;1.40;;;27.00;1.00;;;;;;5106331;28;20076;-72
2021/07/12 13:33:27;;;;;;;2.53;1.42;;;26.80;1.00;;;;;;5109530;28;20043;-72
2021/07/12 13:36:18;;;;;;;1.67;1.58;;;27.50;1.00;;;;;;5111077;28;20450;-71
2021/07/12 13:39:06;;;;;;;1.38;1.27;;;27.70;1.00;;;;;;5112403;27;20043;-71
2021/07/12 13:41:54;;;;;;;1.60;1.27;;;27.40;1.00;;;;;;5110916;27;20047;-71
2021/07/12 13:44:43;;;;;;;1.58;1.48;;;27.50;1.00;;;;;;5114568;27;20103;-70
2021/07/12 13:47:32;;;;;;;1.52;1.27;;;27.50;1.00;;;;;;5105091;27;20130;-73
2021/07/12 13:50:24;;;;;;;1.80;1.27;;;27.20;1.00;;;;;;5109351;27;20047;-71
2021/07/12 13:53:13;;;;;;;1.35;1.23;;;27.40;1.00;;;;;;5111626;27;20107;-72
2021/07/12 13:56:01;;;;;;;1.40;1.30;;;27.60;1.00;;;;;;5110231;27;20043;-71
2021/07/12 13:58:49;;;;;;;4.97;1.48;;;27.80;1.00;;;;;;5102380;27;20150;-72
2021/07/12 14:01:38;;;;;;;3.42;1.45;;;27.40;1.00;;;;;;5108282;27;20188;-71
2021/07/12 14:04:28;;;;;;;1.75;1.42;;;27.50;1.00;;;;;;5110432;27;20096;-71
2021/07/12 14:07:20;;;;;;;2.05;1.30;;;27.80;1.00;;;;;;5109827;27;20502;-71
2021/07/12 14:10:10;;;;;;;1.75;1.42;;;27.90;1.00;;;;;;5113620;27;20051;-71
2021/07/12 14:12:58;;;;;;;2.03;1.45;;;27.60;1.00;;;;;;5113142;27;20043;-71
2021/07/12 14:15:47;;;;;;;1.92;1.60;;;27.30;1.00;;;;;;5110309;27;20085;-71
2021/07/12 14:18:35;;;;;;;2.33;1.63;;;27.90;1.00;;;;;;5107755;27;20402;-71
2021/07/12 14:21:26;;;;;;;1.65;1.50;;;27.70;1.00;;;;;;5110530;27;20039;-72
2021/07/12 14:24:15;;;;;;;3.22;1.60;;;27.60;1.00;;;;;;5110652;27;20059;-73
2021/07/12 14:27:05;;;;;;;2.13;1.70;;;27.70;1.00;;;;;;5113185;27;20521;-71
2021/07/12 14:29:54;;;;;;;2.53;1.63;;;27.70;1.00;;;;;;5111078;27;20043;-73
2021/07/12 14:32:42;;;;;;;3.65;1.70;;;27.80;1.00;;;;;;5108495;27;20576;-70
2021/07/12 14:35:31;;;;;;;1.75;1.40;;;27.80;1.00;;;;;;5113067;27;20054;-71
2021/07/12 14:38:25;;;;;;;3.05;1.25;;;27.70;1.00;;;;;;5108032;27;20604;-70
2021/07/12 14:41:13;;;;;;;2.85;1.58;;;27.70;1.00;;;;;;5113920;27;20050;-70
2021/07/12 14:44:02;;;;;;;1.40;1.10;;;27.30;1.00;;;;;;5114960;27;20070;-71
2021/07/12 14:46:52;;;;;;;2.83;1.35;;;27.30;1.00;;;;;;5111250;27;20067;-72
2021/07/12 14:49:40;;;;;;;2.25;1.50;;;27.40;1.00;;;;;;5106837;27;20501;-72
2021/07/12 14:52:29;;;;;;;1.17;1.08;;;27.40;1.00;;;;;;5115906;27;20434;-72
2021/07/12 14:55:18;;;;;;;3.20;1.50;;;27.40;1.00;;;;;;5111585;27;20247;-72
2021/07/12 14:58:07;;;;;;;2.53;1.50;;;27.60;1.00;;;;;;5111706;27;20042;-71
2021/07/12 15:00:55;;;;;;;1.92;1.58;;;27.50;1.00;;;;;;5107915;27;20044;-69
2021/07/12 15:03:44;;;;;;;4.05;1.50;;;27.30;1.00;;;;;;5111233;27;20059;-71
2021/07/12 15:06:32;;;;;;;2.30;1.58;;;27.50;1.00;;;;;;5113330;27;20362;-70